sensor_id;sensor_type;location;lat;lon;timestamp;P1;durP1;ratioP1;P2;durP2;ratioP2
17987;SDS011;9119;50.932;5.342;2022-07-29T00:02:11;9.93;;;2.97;;
17987;SDS011;9119;50.932;5.342;2022-07-29T00:04:36;9.37;;;2.83;;
17987;SDS011;9119;50.932;5.342;2022-07-29T00:07:03;7.40;;;2.53;;
17987;SDS011;9119;50.932;5.342;2022-07-29T00:09:29;6.50;;;2.70;;
17987;SDS011;9119;50.932;5.342;2022-07-29T00:11:56;10.47;;;3.03;;
17987;SDS011;9119;50.932;5.342;2022-07-29T00:14:25;7.03;;;2.53;;
17987;SDS011;9119;50.932;5.342;2022-07-29T00:16:51;8.63;;;2.90;;
17987;SDS011;9119;50.932;5.342;2022-07-29T00:19:17;7.27;;;2.60;;
17987;SDS011;9119;50.932;5.342;2022-07-29T00:21:42;7.07;;;2.57;;
17987;SDS011;9119;50.932;5.342;2022-07-29T00:24:08;5.47;;;2.40;;
17987;SDS011;9119;50.932;5.342;2022-07-29T00:26:34;9.00;;;2.73;;
17987;SDS011;9119;50.932;5.342;2022-07-29T00:29:00;8.23;;;2.67;;
17987;SDS011;9119;50.932;5.342;2022-07-29T00:31:27;7.10;;;2.50;;
17987;SDS011;9119;50.932;5.342;2022-07-29T00:33:52;12.73;;;2.83;;
17987;SDS011;9119;50.932;5.342;2022-07-29T00:36:18;13.77;;;3.50;;
17987;SDS011;9119;50.932;5.342;2022-07-29T00:38:45;11.03;;;3.10;;
17987;SDS011;9119;50.932;5.342;2022-07-29T00:41:15;10.37;;;2.93;;
17987;SDS011;9119;50.932;5.342;2022-07-29T00:43:41;12.87;;;2.87;;
17987;SDS011;9119;50.932;5.342;2022-07-29T00:46:07;6.83;;;2.80;;
17987;SDS011;9119;50.932;5.342;2022-07-29T00:48:33;8.60;;;2.70;;
17987;SDS011;9119;50.932;5.342;2022-07-29T00:50:59;9.40;;;3.17;;
17987;SDS011;9119;50.932;5.342;2022-07-29T00:53:27;11.13;;;2.83;;
17987;SDS011;9119;50.932;5.342;2022-07-29T00:55:55;6.47;;;2.90;;
17987;SDS011;9119;50.932;5.342;2022-07-29T00:58:21;5.73;;;2.67;;
17987;SDS011;9119;50.932;5.342;2022-07-29T01:00:47;9.83;;;3.03;;
17987;SDS011;9119;50.932;5.342;2022-07-29T01:03:13;8.57;;;2.77;;
17987;SDS011;9119;50.932;5.342;2022-07-29T01:05:38;5.90;;;2.63;;
17987;SDS011;9119;50.932;5.342;2022-07-29T01:08:06;8.97;;;2.70;;
17987;SDS011;9119;50.932;5.342;2022-07-29T01:10:32;4.93;;;2.50;;
17987;SDS011;9119;50.932;5.342;2022-07-29T01:12:59;11.37;;;3.13;;
17987;SDS011;9119;50.932;5.342;2022-07-29T01:15:26;9.47;;;2.67;;
17987;SDS011;9119;50.932;5.342;2022-07-29T01:26:15;10.77;;;2.50;;
17987;SDS011;9119;50.932;5.342;2022-07-29T01:29:03;9.60;;;2.60;;
17987;SDS011;9119;50.932;5.342;2022-07-29T01:31:51;8.13;;;3.40;;
17987;SDS011;9119;50.932;5.342;2022-07-29T01:34:23;9.73;;;2.37;;
17987;SDS011;9119;50.932;5.342;2022-07-29T01:39:51;7.63;;;2.87;;
17987;SDS011;9119;50.932;5.342;2022-07-29T01:47:31;5.23;;;3.17;;
17987;SDS011;9119;50.932;5.342;2022-07-29T01:50:02;9.17;;;2.87;;
17987;SDS011;9119;50.932;5.342;2022-07-29T01:52:36;9.80;;;2.90;;
17987;SDS011;9119;50.932;5.342;2022-07-29T01:55:09;7.80;;;3.50;;
17987;SDS011;9119;50.932;5.342;2022-07-29T01:57:39;6.47;;;2.97;;
17987;SDS011;9119;50.932;5.342;2022-07-29T02:00:08;9.57;;;3.73;;
17987;SDS011;9119;50.932;5.342;2022-07-29T02:02:34;11.83;;;4.13;;
17987;SDS011;9119;50.932;5.342;2022-07-29T02:05:02;11.63;;;3.60;;
17987;SDS011;9119;50.932;5.342;2022-07-29T02:07:31;9.57;;;3.70;;
17987;SDS011;9119;50.932;5.342;2022-07-29T02:09:58;11.57;;;3.83;;
17987;SDS011;9119;50.932;5.342;2022-07-29T02:12:25;12.70;;;4.00;;
17987;SDS011;9119;50.932;5.342;2022-07-29T02:14:53;13.50;;;3.93;;
17987;SDS011;9119;50.932;5.342;2022-07-29T02:17:23;7.20;;;3.77;;
17987;SDS011;9119;50.932;5.342;2022-07-29T02:19:53;7.87;;;4.10;;
17987;SDS011;9119;50.932;5.342;2022-07-29T02:22:24;8.47;;;3.53;;
17987;SDS011;9119;50.932;5.342;2022-07-29T02:24:51;7.50;;;3.70;;
17987;SDS011;9119;50.932;5.342;2022-07-29T02:27:19;12.90;;;3.30;;
17987;SDS011;9119;50.932;5.342;2022-07-29T02:29:45;14.03;;;3.93;;
17987;SDS011;9119;50.932;5.342;2022-07-29T02:32:12;9.40;;;3.57;;
17987;SDS011;9119;50.932;5.342;2022-07-29T02:34:39;11.33;;;4.10;;
17987;SDS011;9119;50.932;5.342;2022-07-29T02:37:07;14.57;;;4.07;;
17987;SDS011;9119;50.932;5.342;2022-07-29T02:39:35;5.67;;;3.30;;
17987;SDS011;9119;50.932;5.342;2022-07-29T02:42:03;7.77;;;3.13;;
17987;SDS011;9119;50.932;5.342;2022-07-29T02:44:32;6.70;;;3.80;;
17987;SDS011;9119;50.932;5.342;2022-07-29T02:47:42;8.50;;;3.70;;
17987;SDS011;9119;50.932;5.342;2022-07-29T02:52:24;9.93;;;3.47;;
17987;SDS011;9119;50.932;5.342;2022-07-29T02:54:58;11.57;;;3.57;;
17987;SDS011;9119;50.932;5.342;2022-07-29T02:57:33;5.93;;;3.17;;
17987;SDS011;9119;50.932;5.342;2022-07-29T03:00:06;5.87;;;3.10;;
17987;SDS011;9119;50.932;5.342;2022-07-29T03:02:34;10.47;;;3.50;;
17987;SDS011;9119;50.932;5.342;2022-07-29T03:05:03;8.60;;;3.20;;
17987;SDS011;9119;50.932;5.342;2022-07-29T03:07:31;7.43;;;3.77;;
17987;SDS011;9119;50.932;5.342;2022-07-29T03:09:58;10.83;;;3.23;;
17987;SDS011;9119;50.932;5.342;2022-07-29T03:12:24;10.30;;;3.67;;
17987;SDS011;9119;50.932;5.342;2022-07-29T03:14:51;9.87;;;3.70;;
17987;SDS011;9119;50.932;5.342;2022-07-29T03:17:18;7.80;;;3.50;;
17987;SDS011;9119;50.932;5.342;2022-07-29T03:19:44;9.37;;;3.80;;
17987;SDS011;9119;50.932;5.342;2022-07-29T03:22:10;12.23;;;4.20;;
17987;SDS011;9119;50.932;5.342;2022-07-29T03:24:36;7.97;;;3.40;;
17987;SDS011;9119;50.932;5.342;2022-07-29T03:27:02;8.67;;;3.70;;
17987;SDS011;9119;50.932;5.342;2022-07-29T03:29:29;8.27;;;3.40;;
17987;SDS011;9119;50.932;5.342;2022-07-29T03:31:55;8.57;;;3.53;;
17987;SDS011;9119;50.932;5.342;2022-07-29T03:34:20;8.97;;;3.53;;
17987;SDS011;9119;50.932;5.342;2022-07-29T03:36:46;9.23;;;3.70;;
17987;SDS011;9119;50.932;5.342;2022-07-29T03:39:13;7.57;;;3.40;;
17987;SDS011;9119;50.932;5.342;2022-07-29T03:41:43;11.27;;;3.83;;
17987;SDS011;9119;50.932;5.342;2022-07-29T03:44:12;7.10;;;3.47;;
17987;SDS011;9119;50.932;5.342;2022-07-29T03:46:40;7.07;;;3.33;;
17987;SDS011;9119;50.932;5.342;2022-07-29T03:49:08;8.63;;;3.63;;
17987;SDS011;9119;50.932;5.342;2022-07-29T03:51:36;6.77;;;3.43;;
17987;SDS011;9119;50.932;5.342;2022-07-29T03:54:02;7.27;;;3.60;;
17987;SDS011;9119;50.932;5.342;2022-07-29T03:56:28;12.37;;;3.77;;
17987;SDS011;9119;50.932;5.342;2022-07-29T03:58:57;5.13;;;3.33;;
17987;SDS011;9119;50.932;5.342;2022-07-29T04:01:23;9.23;;;3.50;;
17987;SDS011;9119;50.932;5.342;2022-07-29T04:03:50;6.57;;;3.40;;
17987;SDS011;9119;50.932;5.342;2022-07-29T04:06:16;10.00;;;4.23;;
17987;SDS011;9119;50.932;5.342;2022-07-29T04:08:42;5.93;;;3.33;;
17987;SDS011;9119;50.932;5.342;2022-07-29T04:11:07;7.50;;;3.73;;
17987;SDS011;9119;50.932;5.342;2022-07-29T04:13:33;9.27;;;3.50;;
17987;SDS011;9119;50.932;5.342;2022-07-29T04:15:59;11.77;;;3.47;;
17987;SDS011;9119;50.932;5.342;2022-07-29T04:18:24;7.83;;;4.13;;
17987;SDS011;9119;50.932;5.342;2022-07-29T04:20:50;7.83;;;3.67;;
17987;SDS011;9119;50.932;5.342;2022-07-29T04:23:16;9.97;;;4.13;;
17987;SDS011;9119;50.932;5.342;2022-07-29T04:25:42;9.40;;;4.50;;
17987;SDS011;9119;50.932;5.342;2022-07-29T04:28:08;11.47;;;4.30;;
17987;SDS011;9119;50.932;5.342;2022-07-29T04:30:35;8.77;;;4.10;;
17987;SDS011;9119;50.932;5.342;2022-07-29T04:33:03;7.37;;;4.00;;
17987;SDS011;9119;50.932;5.342;2022-07-29T04:35:30;13.07;;;4.10;;
17987;SDS011;9119;50.932;5.342;2022-07-29T04:37:58;8.70;;;3.97;;
17987;SDS011;9119;50.932;5.342;2022-07-29T04:40:24;9.17;;;4.23;;
17987;SDS011;9119;50.932;5.342;2022-07-29T04:42:49;13.47;;;3.73;;
17987;SDS011;9119;50.932;5.342;2022-07-29T04:45:15;10.93;;;4.40;;
17987;SDS011;9119;50.932;5.342;2022-07-29T04:47:41;8.60;;;4.13;;
17987;SDS011;9119;50.932;5.342;2022-07-29T04:50:07;8.83;;;4.00;;
17987;SDS011;9119;50.932;5.342;2022-07-29T04:52:34;8.20;;;3.90;;
17987;SDS011;9119;50.932;5.342;2022-07-29T04:55:00;10.30;;;4.17;;
17987;SDS011;9119;50.932;5.342;2022-07-29T04:57:26;9.20;;;4.10;;
17987;SDS011;9119;50.932;5.342;2022-07-29T04:59:52;7.93;;;4.40;;
17987;SDS011;9119;50.932;5.342;2022-07-29T05:02:17;10.23;;;4.57;;
17987;SDS011;9119;50.932;5.342;2022-07-29T05:04:43;9.93;;;5.17;;
17987;SDS011;9119;50.932;5.342;2022-07-29T05:07:09;9.47;;;4.87;;
17987;SDS011;9119;50.932;5.342;2022-07-29T05:09:34;8.90;;;4.67;;
17987;SDS011;9119;50.932;5.342;2022-07-29T05:12:00;9.50;;;5.00;;
17987;SDS011;9119;50.932;5.342;2022-07-29T05:14:26;12.93;;;4.80;;
17987;SDS011;9119;50.932;5.342;2022-07-29T05:16:51;11.07;;;5.00;;
17987;SDS011;9119;50.932;5.342;2022-07-29T05:19:18;15.30;;;5.47;;
17987;SDS011;9119;50.932;5.342;2022-07-29T05:21:46;10.07;;;5.00;;
17987;SDS011;9119;50.932;5.342;2022-07-29T05:24:12;10.10;;;5.10;;
17987;SDS011;9119;50.932;5.342;2022-07-29T05:26:38;10.73;;;5.57;;
17987;SDS011;9119;50.932;5.342;2022-07-29T05:29:04;10.80;;;5.20;;
17987;SDS011;9119;50.932;5.342;2022-07-29T05:31:30;10.17;;;5.00;;
17987;SDS011;9119;50.932;5.342;2022-07-29T05:33:55;13.47;;;5.53;;
17987;SDS011;9119;50.932;5.342;2022-07-29T05:36:21;11.30;;;5.27;;
17987;SDS011;9119;50.932;5.342;2022-07-29T05:38:47;13.37;;;5.57;;
17987;SDS011;9119;50.932;5.342;2022-07-29T05:41:12;13.37;;;5.87;;
17987;SDS011;9119;50.932;5.342;2022-07-29T05:43:38;11.97;;;6.03;;
17987;SDS011;9119;50.932;5.342;2022-07-29T05:46:03;12.33;;;6.00;;
17987;SDS011;9119;50.932;5.342;2022-07-29T05:48:29;13.27;;;5.73;;
17987;SDS011;9119;50.932;5.342;2022-07-29T05:50:55;11.67;;;6.67;;
17987;SDS011;9119;50.932;5.342;2022-07-29T05:53:20;13.40;;;6.40;;
17987;SDS011;9119;50.932;5.342;2022-07-29T05:55:47;11.33;;;6.30;;
17987;SDS011;9119;50.932;5.342;2022-07-29T05:58:13;11.83;;;6.60;;
17987;SDS011;9119;50.932;5.342;2022-07-29T06:00:39;15.03;;;7.00;;
17987;SDS011;9119;50.932;5.342;2022-07-29T06:03:04;12.47;;;7.07;;
17987;SDS011;9119;50.932;5.342;2022-07-29T06:05:30;18.17;;;7.20;;
17987;SDS011;9119;50.932;5.342;2022-07-29T06:07:56;13.00;;;6.30;;
17987;SDS011;9119;50.932;5.342;2022-07-29T06:10:21;11.00;;;6.37;;
17987;SDS011;9119;50.932;5.342;2022-07-29T06:12:47;15.73;;;6.33;;
17987;SDS011;9119;50.932;5.342;2022-07-29T06:15:15;15.90;;;7.00;;
17987;SDS011;9119;50.932;5.342;2022-07-29T06:17:40;16.17;;;7.40;;
17987;SDS011;9119;50.932;5.342;2022-07-29T06:20:06;10.80;;;6.07;;
17987;SDS011;9119;50.932;5.342;2022-07-29T06:22:32;12.17;;;6.43;;
17987;SDS011;9119;50.932;5.342;2022-07-29T06:24:58;11.33;;;6.73;;
17987;SDS011;9119;50.932;5.342;2022-07-29T06:27:24;10.63;;;6.40;;
17987;SDS011;9119;50.932;5.342;2022-07-29T06:29:49;13.20;;;6.20;;
17987;SDS011;9119;50.932;5.342;2022-07-29T06:32:15;15.17;;;6.50;;
17987;SDS011;9119;50.932;5.342;2022-07-29T06:34:40;16.33;;;7.17;;
17987;SDS011;9119;50.932;5.342;2022-07-29T06:37:06;18.70;;;7.03;;
17987;SDS011;9119;50.932;5.342;2022-07-29T06:39:34;13.03;;;6.40;;
17987;SDS011;9119;50.932;5.342;2022-07-29T06:42:01;9.73;;;5.90;;
17987;SDS011;9119;50.932;5.342;2022-07-29T06:44:27;8.60;;;5.90;;
17987;SDS011;9119;50.932;5.342;2022-07-29T06:46:52;15.20;;;6.80;;
17987;SDS011;9119;50.932;5.342;2022-07-29T06:49:19;11.47;;;5.73;;
17987;SDS011;9119;50.932;5.342;2022-07-29T06:51:45;15.80;;;6.10;;
17987;SDS011;9119;50.932;5.342;2022-07-29T06:54:11;12.07;;;6.50;;
17987;SDS011;9119;50.932;5.342;2022-07-29T06:56:37;9.27;;;5.87;;
17987;SDS011;9119;50.932;5.342;2022-07-29T06:59:03;19.20;;;6.63;;
17987;SDS011;9119;50.932;5.342;2022-07-29T07:01:30;13.47;;;6.20;;
17987;SDS011;9119;50.932;5.342;2022-07-29T07:03:55;10.67;;;6.33;;
17987;SDS011;9119;50.932;5.342;2022-07-29T07:06:21;11.37;;;6.30;;
17987;SDS011;9119;50.932;5.342;2022-07-29T07:08:47;12.23;;;6.70;;
17987;SDS011;9119;50.932;5.342;2022-07-29T07:11:12;14.57;;;6.80;;
17987;SDS011;9119;50.932;5.342;2022-07-29T07:13:38;17.70;;;7.13;;
17987;SDS011;9119;50.932;5.342;2022-07-29T07:16:03;15.53;;;7.20;;
17987;SDS011;9119;50.932;5.342;2022-07-29T07:18:29;14.00;;;6.50;;
17987;SDS011;9119;50.932;5.342;2022-07-29T07:20:56;10.53;;;6.27;;
17987;SDS011;9119;50.932;5.342;2022-07-29T07:23:23;11.57;;;6.20;;
17987;SDS011;9119;50.932;5.342;2022-07-29T07:25:49;15.33;;;7.00;;
17987;SDS011;9119;50.932;5.342;2022-07-29T07:28:16;11.73;;;6.47;;
17987;SDS011;9119;50.932;5.342;2022-07-29T07:30:45;17.60;;;7.03;;
17987;SDS011;9119;50.932;5.342;2022-07-29T07:33:10;13.67;;;6.20;;
17987;SDS011;9119;50.932;5.342;2022-07-29T07:35:36;11.27;;;6.17;;
17987;SDS011;9119;50.932;5.342;2022-07-29T07:38:02;10.60;;;6.10;;
17987;SDS011;9119;50.932;5.342;2022-07-29T07:40:27;14.30;;;6.07;;
17987;SDS011;9119;50.932;5.342;2022-07-29T07:42:53;14.20;;;6.03;;
17987;SDS011;9119;50.932;5.342;2022-07-29T07:45:19;12.00;;;5.77;;
17987;SDS011;9119;50.932;5.342;2022-07-29T07:47:44;21.20;;;6.63;;
17987;SDS011;9119;50.932;5.342;2022-07-29T07:50:11;15.63;;;6.50;;
17987;SDS011;9119;50.932;5.342;2022-07-29T07:52:50;13.30;;;6.30;;
17987;SDS011;9119;50.932;5.342;2022-07-29T07:55:17;12.20;;;6.27;;
17987;SDS011;9119;50.932;5.342;2022-07-29T07:57:44;10.33;;;5.40;;
17987;SDS011;9119;50.932;5.342;2022-07-29T08:00:11;10.03;;;5.67;;
17987;SDS011;9119;50.932;5.342;2022-07-29T08:02:38;12.43;;;5.97;;
17987;SDS011;9119;50.932;5.342;2022-07-29T08:05:05;9.93;;;5.20;;
17987;SDS011;9119;50.932;5.342;2022-07-29T08:07:32;8.67;;;6.00;;
17987;SDS011;9119;50.932;5.342;2022-07-29T08:09:58;12.87;;;6.40;;
17987;SDS011;9119;50.932;5.342;2022-07-29T08:12:23;10.97;;;4.93;;
17987;SDS011;9119;50.932;5.342;2022-07-29T08:14:49;12.67;;;5.50;;
17987;SDS011;9119;50.932;5.342;2022-07-29T08:17:17;11.87;;;5.30;;
17987;SDS011;9119;50.932;5.342;2022-07-29T08:19:43;12.93;;;4.87;;
17987;SDS011;9119;50.932;5.342;2022-07-29T08:22:08;10.27;;;5.50;;
17987;SDS011;9119;50.932;5.342;2022-07-29T08:24:34;12.67;;;5.53;;
17987;SDS011;9119;50.932;5.342;2022-07-29T08:27:11;10.77;;;5.30;;
17987;SDS011;9119;50.932;5.342;2022-07-29T08:29:39;11.90;;;5.07;;
17987;SDS011;9119;50.932;5.342;2022-07-29T08:32:05;8.87;;;5.53;;
17987;SDS011;9119;50.932;5.342;2022-07-29T08:34:31;12.00;;;5.03;;
17987;SDS011;9119;50.932;5.342;2022-07-29T08:36:57;10.87;;;4.97;;
17987;SDS011;9119;50.932;5.342;2022-07-29T08:39:23;12.60;;;4.73;;
17987;SDS011;9119;50.932;5.342;2022-07-29T08:41:49;12.57;;;4.60;;
17987;SDS011;9119;50.932;5.342;2022-07-29T08:44:16;13.50;;;5.40;;
17987;SDS011;9119;50.932;5.342;2022-07-29T08:46:43;11.47;;;5.40;;
17987;SDS011;9119;50.932;5.342;2022-07-29T08:49:08;10.53;;;5.37;;
17987;SDS011;9119;50.932;5.342;2022-07-29T08:51:34;13.07;;;5.30;;
17987;SDS011;9119;50.932;5.342;2022-07-29T08:54:03;9.83;;;5.90;;
17987;SDS011;9119;50.932;5.342;2022-07-29T08:56:30;15.50;;;5.57;;
17987;SDS011;9119;50.932;5.342;2022-07-29T08:58:56;13.37;;;6.10;;
17987;SDS011;9119;50.932;5.342;2022-07-29T09:01:24;13.33;;;5.37;;
17987;SDS011;9119;50.932;5.342;2022-07-29T09:03:54;10.43;;;5.27;;
17987;SDS011;9119;50.932;5.342;2022-07-29T09:06:21;11.13;;;6.00;;
17987;SDS011;9119;50.932;5.342;2022-07-29T09:08:50;15.13;;;6.57;;
17987;SDS011;9119;50.932;5.342;2022-07-29T09:11:16;11.97;;;5.30;;
17987;SDS011;9119;50.932;5.342;2022-07-29T09:13:42;9.50;;;5.40;;
17987;SDS011;9119;50.932;5.342;2022-07-29T09:16:08;11.87;;;5.13;;
17987;SDS011;9119;50.932;5.342;2022-07-29T09:21:08;8.93;;;4.50;;
17987;SDS011;9119;50.932;5.342;2022-07-29T09:24:10;8.43;;;4.37;;
17987;SDS011;9119;50.932;5.342;2022-07-29T09:26:42;10.27;;;4.90;;
17987;SDS011;9119;50.932;5.342;2022-07-29T09:29:09;16.27;;;9.23;;
17987;SDS011;9119;50.932;5.342;2022-07-29T09:31:38;9.53;;;4.90;;
17987;SDS011;9119;50.932;5.342;2022-07-29T09:34:06;10.43;;;4.60;;
17987;SDS011;9119;50.932;5.342;2022-07-29T09:36:39;11.77;;;5.07;;
17987;SDS011;9119;50.932;5.342;2022-07-29T09:39:09;9.07;;;4.80;;
17987;SDS011;9119;50.932;5.342;2022-07-29T09:41:48;7.20;;;4.77;;
17987;SDS011;9119;50.932;5.342;2022-07-29T09:44:18;9.00;;;4.43;;
17987;SDS011;9119;50.932;5.342;2022-07-29T09:46:57;11.23;;;4.83;;
17987;SDS011;9119;50.932;5.342;2022-07-29T09:49:27;10.23;;;5.30;;
17987;SDS011;9119;50.932;5.342;2022-07-29T09:52:00;9.40;;;4.53;;
17987;SDS011;9119;50.932;5.342;2022-07-29T09:54:33;10.40;;;5.50;;
17987;SDS011;9119;50.932;5.342;2022-07-29T09:57:02;10.07;;;5.30;;
17987;SDS011;9119;50.932;5.342;2022-07-29T09:59:32;10.70;;;4.87;;
17987;SDS011;9119;50.932;5.342;2022-07-29T10:01:59;10.73;;;4.70;;
17987;SDS011;9119;50.932;5.342;2022-07-29T10:04:37;8.07;;;4.23;;
17987;SDS011;9119;50.932;5.342;2022-07-29T10:07:04;12.40;;;4.50;;
17987;SDS011;9119;50.932;5.342;2022-07-29T10:09:30;9.80;;;4.53;;
17987;SDS011;9119;50.932;5.342;2022-07-29T10:12:08;10.13;;;4.17;;
17987;SDS011;9119;50.932;5.342;2022-07-29T10:14:36;4.53;;;3.23;;
17987;SDS011;9119;50.932;5.342;2022-07-29T10:17:03;10.97;;;4.77;;
17987;SDS011;9119;50.932;5.342;2022-07-29T10:19:30;6.40;;;3.90;;
17987;SDS011;9119;50.932;5.342;2022-07-29T10:21:57;9.23;;;3.67;;
17987;SDS011;9119;50.932;5.342;2022-07-29T10:24:27;7.13;;;3.47;;
17987;SDS011;9119;50.932;5.342;2022-07-29T10:26:58;8.67;;;3.60;;
17987;SDS011;9119;50.932;5.342;2022-07-29T10:29:25;6.43;;;3.73;;
17987;SDS011;9119;50.932;5.342;2022-07-29T10:43:29;4.57;;;2.70;;
17987;SDS011;9119;50.932;5.342;2022-07-29T10:46:01;10.73;;;3.13;;
17987;SDS011;9119;50.932;5.342;2022-07-29T10:48:27;9.00;;;2.90;;
17987;SDS011;9119;50.932;5.342;2022-07-29T10:50:58;5.07;;;2.67;;
17987;SDS011;9119;50.932;5.342;2022-07-29T10:53:48;8.23;;;2.88;;
17987;SDS011;9119;50.932;5.342;2022-07-29T10:56:29;4.37;;;2.70;;
17987;SDS011;9119;50.932;5.342;2022-07-29T11:01:45;6.35;;;2.70;;
17987;SDS011;9119;50.932;5.342;2022-07-29T11:04:12;6.65;;;2.22;;
17987;SDS011;9119;50.932;5.342;2022-07-29T11:09:25;7.15;;;2.83;;
17987;SDS011;9119;50.932;5.342;2022-07-29T11:11:51;3.70;;;2.58;;
17987;SDS011;9119;50.932;5.342;2022-07-29T11:14:17;5.28;;;2.83;;
17987;SDS011;9119;50.932;5.342;2022-07-29T11:17:04;5.35;;;2.35;;
17987;SDS011;9119;50.932;5.342;2022-07-29T11:19:32;3.85;;;2.40;;
17987;SDS011;9119;50.932;5.342;2022-07-29T11:21:58;3.70;;;2.42;;
17987;SDS011;9119;50.932;5.342;2022-07-29T11:24:27;4.90;;;2.15;;
17987;SDS011;9119;50.932;5.342;2022-07-29T11:27:05;7.10;;;3.15;;
17987;SDS011;9119;50.932;5.342;2022-07-29T11:29:38;7.13;;;2.30;;
17987;SDS011;9119;50.932;5.342;2022-07-29T11:32:10;7.63;;;2.75;;
17987;SDS011;9119;50.932;5.342;2022-07-29T11:34:39;3.15;;;2.40;;
17987;SDS011;9119;50.932;5.342;2022-07-29T11:39:37;5.95;;;2.53;;
17987;SDS011;9119;50.932;5.342;2022-07-29T11:47:40;4.57;;;2.65;;
17987;SDS011;9119;50.932;5.342;2022-07-29T11:50:18;5.45;;;2.45;;
17987;SDS011;9119;50.932;5.342;2022-07-29T11:52:52;9.05;;;2.83;;
17987;SDS011;9119;50.932;5.342;2022-07-29T11:55:19;6.32;;;2.40;;
17987;SDS011;9119;50.932;5.342;2022-07-29T11:57:56;5.13;;;2.50;;
17987;SDS011;9119;50.932;5.342;2022-07-29T12:00:36;17.40;;;8.43;;
17987;SDS011;9119;50.932;5.342;2022-07-29T12:03:05;9.70;;;3.40;;
17987;SDS011;9119;50.932;5.342;2022-07-29T12:08:08;6.88;;;2.40;;
17987;SDS011;9119;50.932;5.342;2022-07-29T12:10:46;6.95;;;2.97;;
17987;SDS011;9119;50.932;5.342;2022-07-29T12:13:14;5.72;;;2.72;;
17987;SDS011;9119;50.932;5.342;2022-07-29T12:15:41;3.77;;;2.63;;
17987;SDS011;9119;50.932;5.342;2022-07-29T12:18:16;6.20;;;3.30;;
17987;SDS011;9119;50.932;5.342;2022-07-29T12:20:44;10.63;;;3.20;;
17987;SDS011;9119;50.932;5.342;2022-07-29T12:23:10;8.10;;;3.30;;
17987;SDS011;9119;50.932;5.342;2022-07-29T12:25:40;8.70;;;3.33;;
17987;SDS011;9119;50.932;5.342;2022-07-29T12:28:11;6.30;;;2.73;;
17987;SDS011;9119;50.932;5.342;2022-07-29T12:33:11;5.05;;;2.30;;
17987;SDS011;9119;50.932;5.342;2022-07-29T12:35:39;7.10;;;3.08;;
17987;SDS011;9119;50.932;5.342;2022-07-29T12:38:05;3.78;;;2.42;;
17987;SDS011;9119;50.932;5.342;2022-07-29T12:40:31;6.82;;;2.22;;
17987;SDS011;9119;50.932;5.342;2022-07-29T12:43:07;5.90;;;2.42;;
17987;SDS011;9119;50.932;5.342;2022-07-29T12:45:37;3.88;;;2.45;;
17987;SDS011;9119;50.932;5.342;2022-07-29T12:48:04;4.85;;;2.50;;
17987;SDS011;9119;50.932;5.342;2022-07-29T12:50:33;8.07;;;2.55;;
17987;SDS011;9119;50.932;5.342;2022-07-29T12:53:10;6.93;;;2.72;;
17987;SDS011;9119;50.932;5.342;2022-07-29T12:55:42;12.43;;;2.60;;
17987;SDS011;9119;50.932;5.342;2022-07-29T12:58:10;5.50;;;2.77;;
17987;SDS011;9119;50.932;5.342;2022-07-29T13:00:35;4.10;;;2.23;;
17987;SDS011;9119;50.932;5.342;2022-07-29T13:03:02;4.43;;;2.40;;
17987;SDS011;9119;50.932;5.342;2022-07-29T13:05:40;4.38;;;2.33;;
17987;SDS011;9119;50.932;5.342;2022-07-29T13:08:13;6.35;;;2.40;;
17987;SDS011;9119;50.932;5.342;2022-07-29T13:10:40;3.70;;;1.95;;
17987;SDS011;9119;50.932;5.342;2022-07-29T13:13:10;6.65;;;2.40;;
17987;SDS011;9119;50.932;5.342;2022-07-29T13:15:38;10.85;;;2.75;;
17987;SDS011;9119;50.932;5.342;2022-07-29T13:18:25;5.30;;;2.17;;
17987;SDS011;9119;50.932;5.342;2022-07-29T13:21:10;6.32;;;2.95;;
17987;SDS011;9119;50.932;5.342;2022-07-29T13:23:37;7.28;;;2.33;;
17987;SDS011;9119;50.932;5.342;2022-07-29T13:26:06;8.07;;;2.50;;
17987;SDS011;9119;50.932;5.342;2022-07-29T13:28:32;7.45;;;2.28;;
17987;SDS011;9119;50.932;5.342;2022-07-29T13:30:59;5.65;;;2.70;;
17987;SDS011;9119;50.932;5.342;2022-07-29T13:33:24;7.72;;;2.70;;
17987;SDS011;9119;50.932;5.342;2022-07-29T13:35:50;8.13;;;2.53;;
17987;SDS011;9119;50.932;5.342;2022-07-29T13:38:16;5.82;;;2.40;;
17987;SDS011;9119;50.932;5.342;2022-07-29T13:40:42;11.63;;;2.42;;
17987;SDS011;9119;50.932;5.342;2022-07-29T13:43:11;8.88;;;2.30;;
17987;SDS011;9119;50.932;5.342;2022-07-29T13:45:38;6.45;;;1.95;;
17987;SDS011;9119;50.932;5.342;2022-07-29T13:48:04;4.82;;;2.40;;
17987;SDS011;9119;50.932;5.342;2022-07-29T13:50:31;4.85;;;1.95;;
17987;SDS011;9119;50.932;5.342;2022-07-29T13:52:57;5.95;;;2.00;;
17987;SDS011;9119;50.932;5.342;2022-07-29T13:55:23;4.05;;;2.00;;
17987;SDS011;9119;50.932;5.342;2022-07-29T13:57:49;5.82;;;1.90;;
17987;SDS011;9119;50.932;5.342;2022-07-29T14:00:15;9.13;;;2.20;;
17987;SDS011;9119;50.932;5.342;2022-07-29T14:02:41;5.60;;;2.30;;
17987;SDS011;9119;50.932;5.342;2022-07-29T14:05:07;7.15;;;2.25;;
17987;SDS011;9119;50.932;5.342;2022-07-29T14:07:34;6.75;;;2.13;;
17987;SDS011;9119;50.932;5.342;2022-07-29T14:10:01;4.20;;;2.00;;
17987;SDS011;9119;50.932;5.342;2022-07-29T14:12:27;4.60;;;2.20;;
17987;SDS011;9119;50.932;5.342;2022-07-29T14:14:53;5.13;;;2.13;;
17987;SDS011;9119;50.932;5.342;2022-07-29T14:17:18;9.23;;;1.90;;
17987;SDS011;9119;50.932;5.342;2022-07-29T14:19:45;3.22;;;1.70;;
17987;SDS011;9119;50.932;5.342;2022-07-29T14:22:10;10.85;;;1.92;;
17987;SDS011;9119;50.932;5.342;2022-07-29T14:24:36;5.88;;;1.92;;
17987;SDS011;9119;50.932;5.342;2022-07-29T14:27:03;9.75;;;2.35;;
17987;SDS011;9119;50.932;5.342;2022-07-29T14:29:29;5.07;;;1.90;;
17987;SDS011;9119;50.932;5.342;2022-07-29T14:31:55;8.40;;;2.00;;
17987;SDS011;9119;50.932;5.342;2022-07-29T14:34:21;5.53;;;2.58;;
17987;SDS011;9119;50.932;5.342;2022-07-29T14:36:47;9.10;;;2.30;;
17987;SDS011;9119;50.932;5.342;2022-07-29T14:39:12;9.77;;;2.40;;
17987;SDS011;9119;50.932;5.342;2022-07-29T14:41:40;7.93;;;2.30;;
17987;SDS011;9119;50.932;5.342;2022-07-29T14:44:06;8.10;;;2.67;;
17987;SDS011;9119;50.932;5.342;2022-07-29T14:46:32;7.05;;;2.28;;
17987;SDS011;9119;50.932;5.342;2022-07-29T14:48:57;6.50;;;2.40;;
17987;SDS011;9119;50.932;5.342;2022-07-29T14:51:23;7.57;;;2.10;;
17987;SDS011;9119;50.932;5.342;2022-07-29T14:53:48;7.47;;;2.63;;
17987;SDS011;9119;50.932;5.342;2022-07-29T14:56:15;7.47;;;2.40;;
17987;SDS011;9119;50.932;5.342;2022-07-29T14:58:40;6.63;;;2.50;;
17987;SDS011;9119;50.932;5.342;2022-07-29T15:01:06;5.25;;;2.28;;
17987;SDS011;9119;50.932;5.342;2022-07-29T15:03:32;10.90;;;2.33;;
17987;SDS011;9119;50.932;5.342;2022-07-29T15:05:57;7.57;;;2.95;;
17987;SDS011;9119;50.932;5.342;2022-07-29T15:08:23;5.35;;;2.25;;
17987;SDS011;9119;50.932;5.342;2022-07-29T15:10:50;8.00;;;2.45;;
17987;SDS011;9119;50.932;5.342;2022-07-29T15:13:16;3.93;;;2.03;;
17987;SDS011;9119;50.932;5.342;2022-07-29T15:15:41;7.37;;;2.27;;
17987;SDS011;9119;50.932;5.342;2022-07-29T15:18:07;6.77;;;1.97;;
17987;SDS011;9119;50.932;5.342;2022-07-29T15:20:34;11.13;;;2.43;;
17987;SDS011;9119;50.932;5.342;2022-07-29T15:23:00;4.73;;;2.17;;
17987;SDS011;9119;50.932;5.342;2022-07-29T15:25:25;7.17;;;2.20;;
17987;SDS011;9119;50.932;5.342;2022-07-29T15:27:51;9.37;;;2.40;;
17987;SDS011;9119;50.932;5.342;2022-07-29T15:30:17;3.23;;;1.80;;
17987;SDS011;9119;50.932;5.342;2022-07-29T15:32:43;5.80;;;2.00;;
17987;SDS011;9119;50.932;5.342;2022-07-29T15:35:10;4.87;;;2.23;;
17987;SDS011;9119;50.932;5.342;2022-07-29T15:37:39;5.73;;;2.00;;
17987;SDS011;9119;50.932;5.342;2022-07-29T15:40:05;6.17;;;2.53;;
17987;SDS011;9119;50.932;5.342;2022-07-29T15:42:31;4.70;;;2.40;;
17987;SDS011;9119;50.932;5.342;2022-07-29T15:44:59;7.47;;;2.20;;
17987;SDS011;9119;50.932;5.342;2022-07-29T15:47:28;9.67;;;2.80;;
17987;SDS011;9119;50.932;5.342;2022-07-29T15:49:53;5.63;;;2.33;;
17987;SDS011;9119;50.932;5.342;2022-07-29T15:52:20;6.13;;;2.00;;